Aérodrome :







RETROUVEZ-NOUS SUR...

 
LOGIN :

S'inscrire | Disclaimer

   EN    FR    IT 

 









Légende :    VFR   VFR Marginal   IFR   IFR Intensif   IFR Très Intensif
Visi : 
Plafond : 
>= 8 km
>= 3000ft
5 à 8 km
1000 à 3000 ft
1500m à 5 km
500 à 1000 ft
800 à 1500m
200 à 500 ft
< 800m
< 200 ft
Symboles :   Orages  Brouillard  Fortes neiges  Fortes précipitations  Vent > 20 kt






- Altitude de l'aérodrome : 241 ft
- Code IATA : CEF


KCEF - Westover ARB/Metropolitan

DERNIER METAR :
  • 250411Z AUTO 00000KT 10SM SCT020 M02/M03 A3034 RMK AO2 SLP283

METARs EXPIRÉS :
  • 250356Z 03003KT 10SM OVC018 M02/M03 A3034 RMK AO2A SLP283 T10211032
  • 250256Z COR 00000KT 10SM OVC017 M01/M02 A3037 RMK AO2A SLP293 T10061023 50008 COR 0300
  • 250235Z 36003KT 10SM BKN017 OVC230 M01/M03 A3037 RMK AO2A SLP293
  • 250156Z 03003KT 10SM SCT017 OVC230 01/M02 A3037 RMK AO2A SLP293 T00081023

TAF TAF KCEF
Valide du 25 à 03h jusqu'au 26 à 09h UTC


250300Z 2503/2609 VRB06KT 9999 BKN015 OVC170 QNH3003INS
BECMG 2518/2519 07012KT 8000 -RA OVC007 WS020/12050KT 540202 QNH2991INS
TEMPO 2519/2522 10015G25KT 540004
BECMG 2521/2522 07012KT 3200 RA BR OVC005 WS020/10045KT 540204 QNH2967INS
TEMPO 2522/2602 10015G25KT 0800 +SHRA 540004
BECMG 2603/2604 27009KT 8000 -DZ BR BKN005 QNH2963INS
BECMG 2607/2608 VRB06KT 9999 NSW SCT005 SCT200 QNH2962INS TX06/2519Z TNM01/2512Z LAST NO AMDS AFT 2504 NEXT 2511



MET'MAP, la Météo Aéronautique d'un coup d'oeil ! - Copyright ORBIFLY Décembre 2007 - Disclaimer

ORBIFLY MET'MAP TEAM :

Programmation & Développement : Alexandra Zaïnal
Sur une idée originale de : Baudouin d'Aumeries
Assistance à la programmation : Marc-Olivier Méhu
Soutien technique & logistique : Manuel Goepfert

Contact : metmap@orbifly.com




SOURCES & CREDITS :

   NOAA